Data for 10/14/2008

Time Sea-Level Adjusted Pressure Absolute Pressure Temperature Relative Humidity Dew Point   
(mb) (inHg) (mb) (inHg) (C) (F) (%) (C) (F)
00:05 1026 30.3 855 25.25 2.8 37 83 0.2 32.4
00:10 1026 30.3 855 25.25 2.9 37.1 84 0.4 32.8
00:15 1026 30.3 855 25.25 2.8 37.1 83 0.3 32.5
00:20 1026 30.3 855 25.25 2.9 37.2 83 0.3 32.5
00:25 1026 30.3 855 25.25 2.9 37.2 82 0.1 32.2
00:30 1026 30.3 855 25.25 2.9 37.3 82 0.1 32.3
00:35 1026 30.3 855 25.25 2.8 37.1 82 0.1 32.1
00:40 1026 30.3 855 25.25 2.9 37.2 81 0 32
00:45 1026 30.3 855 25.25 3.3 37.9 80 0.1 32.2
00:50 1026 30.3 855 25.25 3.4 38.1 79 0.1 32.2
00:55 1026 30.3 855 25.25 3.5 38.3 78 0 32
01:00 1026 30.3 855 25.25 3.5 38.3 78 0 32
01:05 1026 30.3 855 25.25 3.4 38 79 -0 32
01:10 1026 30.3 855 25.25 3.2 37.8 78 -0.1 31.7
01:15 1026 30.3 855 25.25 3.4 38 78 -0.1 31.8
01:20 1025 30.27 855 25.25 3.3 38 78 -0.2 31.7
01:25 1025 30.27 855 25.25 3.3 37.9 78 -0.1 31.7
01:30 1025 30.27 855 25.25 3 37.4 80 -0.2 31.7
01:35 1025 30.27 855 25.25 3 37.5 78 -0.3 31.4
01:40 1025 30.27 855 25.25 3.2 37.8 80 0.1 32.2
01:45 1025 30.27 855 25.25 2.7 36.8 82 -0.1 31.8
01:50 1025 30.27 854 25.22 2.6 36.6 82 -0.2 31.7
01:55 1025 30.27 854 25.22 2.7 36.9 82 0 32.1
02:00 1025 30.27 854 25.22 2.3 36.1 84 -0.2 31.6
02:05 1025 30.27 854 25.22 1.9 35.3 85 -0.5 31.2
02:10 1025 30.27 854 25.22 2.1 35.7 85 -0.2 31.6
02:15 1025 30.27 854 25.22 2.7 36.8 80 -0.5 31.2
02:20 1025 30.27 854 25.22 3.4 38.2 76 -0.4 31.3
02:25 1025 30.27 854 25.22 3.3 37.9 77 -0.3 31.5
02:30 1025 30.27 854 25.22 2.7 36.8 81 -0.3 31.4
02:35 1025 30.27 854 25.22 1.9 35.5 83 -0.6 30.8
02:40 1025 30.27 854 25.22 2.1 35.7 83 -0.5 31
02:45 1025 30.27 854 25.22 2 35.6 81 -0.9 30.4
02:50 1025 30.27 854 25.22 2.3 36.1 80 -0.8 30.5
02:55 1025 30.27 854 25.22 2.4 36.3 80 -0.8 30.6
03:00 1025 30.27 854 25.22 2.5 36.4 77 -1.2 29.8
03:05 1024 30.24 854 25.22 3 37.3 76 -0.8 30.5
03:10 1024 30.24 854 25.22 2.8 37.1 77 -0.9 30.4
03:15 1024 30.24 854 25.22 2.7 36.8 77 -0.9 30.3
03:20 1024 30.24 854 25.22 2.5 36.5 78 -0.9 30.4
03:25 1024 30.24 853 25.19 2.1 35.8 80 -1 30.2
03:30 1024 30.24 853 25.19 2 35.5 81 -1 30.1
03:35 1024 30.24 853 25.19 2.2 35.9 79 -1.1 29.9
03:40 1024 30.24 853 25.19 2.6 36.7 76 -1.3 29.7
03:45 1024 30.24 853 25.19 3.1 37.7 74 -1.1 30
03:50 1024 30.24 853 25.19 3.1 37.5 75 -0.9 30.3
03:55 1024 30.24 853 25.19 2.8 37 76 -1 30.1
04:00 1024 30.24 853 25.19 2.7 36.8 76 -1.1 30
04:05 1024 30.24 853 25.19 2.8 37.1 76 -1 30.2
04:10 1024 30.24 853 25.19 2.6 36.7 77 -1 30.2
04:15 1024 30.24 853 25.19 2.3 36.2 78 -1.1 30.1
04:20 1024 30.24 853 25.19 2 35.7 80 -1.1 30
04:25 1024 30.24 853 25.19 1.7 35 82 -1.1 30
04:30 1024 30.24 853 25.19 1.6 34.9 82 -1.2 29.9
04:35 1024 30.24 853 25.19 1.7 35 81 -1.2 29.9
04:40 1024 30.24 853 25.19 1.5 34.7 82 -1.2 29.8
04:45 1023 30.21 853 25.19 1.5 34.7 81 -1.4 29.4
04:50 1023 30.21 853 25.19 1.6 34.8 81 -1.4 29.6
04:55 1023 30.21 852 25.16 1.7 35 81 -1.3 29.6
05:00 1023 30.21 852 25.16 1.7 35 80 -1.4 29.5
05:05 1023 30.21 852 25.16 1.7 35.1 80 -1.3 29.7
05:10 1023 30.21 852 25.16 1.9 35.5 79 -1.4 29.5
05:15 1023 30.21 852 25.16 2 35.5 79 -1.3 29.7
05:20 1023 30.21 852 25.16 1.9 35.3 80 -1.2 29.8
05:25 1023 30.21 852 25.16 1.7 35.1 80 -1.3 29.6
05:30 1023 30.21 852 25.16 1.8 35.2 80 -1.4 29.5
05:35 1023 30.21 852 25.16 2.2 35.9 77 -1.4 29.5
05:40 1023 30.21 852 25.16 2.4 36.4 77 -1.2 29.8
05:45 1023 30.21 852 25.16 2.5 36.5 76 -1.3 29.6
05:50 1023 30.21 852 25.16 2.6 36.6 76 -1.3 29.7
05:55 1023 30.21 852 25.16 2.5 36.5 75 -1.5 29.3
06:00 1023 30.21 852 25.16 2.5 36.5 75 -1.5 29.4
06:05 1023 30.21 852 25.16 2.4 36.3 76 -1.4 29.5
06:10 1023 30.21 852 25.16 2.3 36.2 76 -1.4 29.5
06:15 1023 30.21 852 25.16 2.4 36.3 76 -1.4 29.4
06:20 1023 30.21 852 25.16 2.6 36.7 75 -1.3 29.6
06:25 1023 30.21 852 25.16 2.7 36.8 75 -1.3 29.6
06:30 1023 30.21 852 25.16 2.6 36.7 76 -1.3 29.7
06:35 1023 30.21 852 25.16 2.4 36.3 76 -1.3 29.6
06:40 1022 30.18 852 25.16 2.4 36.3 76 -1.5 29.4
06:45 1022 30.18 852 25.16 2.6 36.7 75 -1.3 29.6
06:50 1022 30.18 852 25.16 2.4 36.4 77 -1.2 29.8
06:55 1022 30.18 852 25.16 2 35.5 79 -1.3 29.6
07:00 1022 30.18 851 25.13 1.5 34.7 81 -1.5 29.4
07:05 1022 30.18 852 25.16 1.8 35.3 79 -1.4 29.5
07:10 1022 30.18 851 25.13 2.2 35.9 78 -1.3 29.7
07:15 1022 30.18 851 25.13 2.2 36 77 -1.4 29.5
07:20 1022 30.18 851 25.13 2.2 35.9 77 -1.4 29.5
07:25 1022 30.18 851 25.13 2.2 35.9 78 -1.3 29.6
07:30 1022 30.18 851 25.13 1.9 35.4 80 -1.2 29.9
07:35 1022 30.18 851 25.13 2.3 36.2 77 -1.4 29.6
07:40 1022 30.18 851 25.13 1.9 35.5 80 -1.2 29.9
07:45 1022 30.18 851 25.13 2.5 36.5 75 -1.5 29.3
07:50 1022 30.18 851 25.13 2.8 37.1 74 -1.4 29.5
07:55 1022 30.18 851 25.13 3 37.3 74 -1.2 29.8
08:00 1022 30.18 851 25.13 2.4 36.3 77 -1.3 29.7
08:05 1022 30.18 851 25.13 1.8 35.2 79 -1.5 29.4
08:10 1022 30.18 851 25.13 1.8 35.2 78 -1.6 29.2
08:15 1022 30.18 851 25.13 1.7 35.1 79 -1.5 29.3
08:20 1022 30.18 851 25.13 1.7 35 78 -1.7 28.9
08:25 1022 30.18 851 25.13 1.8 35.3 79 -1.5 29.4
08:30 1022 30.18 851 25.13 2.4 36.3 73 -2 28.5
08:35 1022 30.18 851 25.13 4.1 39.5 64 -1.9 28.5
08:40 1022 30.18 851 25.13 4.9 40.7 64 -1.3 29.6
08:45 1022 30.18 851 25.13 5 40.9 63 -1.5 29.3
08:50 1022 30.18 851 25.13 5 41 66 -0.9 30.4
08:55 1022 30.18 852 25.16 4.1 39.4 69 -1.1 30
09:00 1022 30.18 852 25.16 4.7 40.4 65 -1.4 29.4
09:05 1022 30.18 852 25.16 5.9 42.6 62 -0.8 30.5
09:10 1023 30.21 852 25.16 6.2 43.2 63 -0.4 31.3
09:15 1023 30.21 852 25.16 6.2 43.1 64 -0.2 31.6
09:20 1023 30.21 852 25.16 5.6 42.1 65 -0.5 31.1
09:25 1023 30.21 852 25.16 5.3 41.5 65 -0.7 30.7
09:30 1023 30.21 852 25.16 5.3 41.5 65 -0.8 30.6
09:35 1023 30.21 852 25.16 5.5 41.8 64 -0.9 30.5
09:40 1023 30.21 852 25.16 5.8 42.5 62 -0.8 30.5
09:45 1023 30.21 852 25.16 6.2 43.1 62 -0.6 30.9
09:50 1023 30.21 852 25.16 6.4 43.5 62 -0.4 31.3
09:55 1023 30.21 852 25.16 6.6 43.9 61 -0.3 31.5
10:00 1023 30.21 853 25.19 6.7 44.1 62 -0.1 31.9
10:05 1023 30.21 853 25.19 6.2 43.2 69 0.9 33.6
10:10 1023 30.21 853 25.19 5.2 41.3 69 -0.1 31.8
10:15 1024 30.24 853 25.19 5.5 41.9 66 -0.3 31.4
10:20 1023 30.21 853 25.19 6.1 42.9 63 -0.3 31.4
10:25 1023 30.21 853 25.19 6.8 44.2 62 0 32
10:30 1023 30.21 853 25.19 6.8 44.3 62 0.1 32.3
10:35 1024 30.24 853 25.19 6.8 44.3 62 0.1 32.2
10:40 1024 30.24 853 25.19 7.6 45.6 59 0.1 32.3
10:45 1024 30.24 853 25.19 8.2 46.7 58 0.3 32.6
10:50 1024 30.24 853 25.19 8.3 47 58 0.5 32.9
10:55 1024 30.24 853 25.19 8.2 46.8 58 0.4 32.8
11:00 1024 30.24 853 25.19 8.2 46.7 59 0.6 33.2
11:05 1024 30.24 853 25.19 8.3 46.9 57 0.4 32.7
11:10 1024 30.24 853 25.19 9.2 48.6 55 0.6 33
11:15 1024 30.24 853 25.19 10 49.9 49 -0.1 31.8
11:20 1024 30.24 853 25.19 9.6 49.3 53 0.6 33.1
11:25 1024 30.24 853 25.19 9.5 49.1 52 0.3 32.5
11:30 1024 30.24 853 25.19 9.2 48.5 53 0.2 32.4
11:35 1024 30.24 853 25.19 9.3 48.8 53 0.4 32.6
11:40 1023 30.21 853 25.19 9.1 48.4 56 0.9 33.6
11:45 1023 30.21 853 25.19 8.9 48.1 55 0.4 32.6
11:50 1023 30.21 853 25.19 9.4 48.9 56 1.1 34
11:55 1023 30.21 853 25.19 9.6 49.3 56 1.2 34.1
12:00 1023 30.21 853 25.19 9.2 48.6 58 1.3 34.4
12:05 1023 30.21 853 25.19 9.1 48.5 57 1.1 34
12:10 1023 30.21 853 25.19 9.3 48.7 57 1.2 34.2
12:15 1023 30.21 853 25.19 9.4 48.8 56 1.1 34.1
12:20 1023 30.21 853 25.19 9.5 49.1 55 1 33.9
12:25 1023 30.21 853 25.19 9.3 48.7 58 1.4 34.4
12:30 1024 30.24 853 25.19 9.1 48.4 57 1 33.8
12:35 1024 30.24 853 25.19 9.9 49.8 54 1.1 34
12:40 1024 30.24 853 25.19 10.7 51.2 50 0.9 33.5
12:45 1024 30.24 853 25.19 10.9 51.5 53 1.7 35.1
12:50 1024 30.24 853 25.19 11.1 52 50 1.2 34.2
12:55 1024 30.24 853 25.19 10.9 51.7 52 1.4 34.5
13:00 1023 30.21 853 25.19 10.6 51.2 52 1.2 34.1
13:05 1023 30.21 853 25.19 10.5 51 52 1.2 34.2
13:10 1023 30.21 852 25.16 10.5 51 52 1.3 34.3
13:15 1023 30.21 852 25.16 10.5 50.9 54 1.7 35.1
13:20 1023 30.21 852 25.16 10.5 50.9 51 1 33.8
13:25 1023 30.21 852 25.16 10.4 50.7 51 0.7 33.3
13:30 1023 30.21 852 25.16 10.3 50.5 50 0.5 32.9
13:35 1023 30.21 852 25.16 10.2 50.4 51 0.6 33.1
13:40 1023 30.21 853 25.19 10.3 50.5 51 0.5 32.9
13:45 1023 30.21 852 25.16 10.3 50.6 50 0.4 32.7
13:50 1023 30.21 852 25.16 10.5 50.9 50 0.7 33.2
13:55 1023 30.21 852 25.16 10.6 51 50 0.7 33.2
14:00 1023 30.21 852 25.16 10.5 50.9 51 0.8 33.4
14:05 1023 30.21 852 25.16 10.4 50.8 51 0.7 33.2
14:10 1023 30.21 852 25.16 10.2 50.3 52 0.8 33.5
14:15 1023 30.21 852 25.16 10.1 50.2 52 0.6 33.1
14:20 1023 30.21 852 25.16 10.1 50.1 52 0.6 33.2
14:25 1023 30.21 852 25.16 10 50.1 52 0.7 33.3
14:30 1023 30.21 852 25.16 10.1 50.2 52 0.8 33.5
14:35 1023 30.21 852 25.16 10.1 50.1 53 1 33.8
14:40 1023 30.21 852 25.16 10.1 50.2 54 1.2 34.1
14:45 1023 30.21 852 25.16 10 50.1 54 1.2 34.1
14:50 1023 30.21 852 25.16 10 50.1 55 1.3 34.4
14:55 1023 30.21 852 25.16 10 50 54 1.2 34.2
15:00 1023 30.21 852 25.16 9.8 49.6 54 1 33.9
15:05 1023 30.21 852 25.16 9.7 49.5 55 1.2 34.1
15:10 1023 30.21 852 25.16 9.6 49.4 57 1.5 34.8
15:15 1023 30.21 852 25.16 9.5 49 56 1.3 34.3
15:20 1023 30.21 852 25.16 9.5 49 56 1.2 34.2
15:25 1023 30.21 852 25.16 9.6 49.2 56 1.2 34.2
15:30 1023 30.21 852 25.16 9.9 49.8 52 0.5 33
15:35 1023 30.21 852 25.16 10 50 51 0.3 32.6
15:40 1023 30.21 852 25.16 10.1 50.1 52 0.6 33.1
15:45 1023 30.21 852 25.16 10.3 50.5 51 0.5 32.9
15:50 1023 30.21 852 25.16 10.4 50.8 50 0.4 32.6
15:55 1023 30.21 852 25.16 10.6 51.1 49 0.3 32.6
16:00 1023 30.21 852 25.16 11.4 52.6 46 0.4 32.7
16:05 1023 30.21 852 25.16 11.1 52 49 1 33.8
16:10 1023 30.21 852 25.16 10.6 51 49 0.5 32.8
16:15 1023 30.21 852 25.16 11.1 52 49 0.9 33.6
16:20 1023 30.21 852 25.16 10.7 51.2 51 1 33.8
16:25 1023 30.21 852 25.16 10.5 50.9 52 1.1 33.9
16:30 1023 30.21 852 25.16 10.4 50.7 52 1 33.8
16:35 1023 30.21 852 25.16 10.3 50.5 53 1.2 34.1
16:40 1023 30.21 852 25.16 10.1 50.3 54 1.2 34.2
16:45 1023 30.21 852 25.16 10.1 50.1 54 1.1 34
16:50 1023 30.21 852 25.16 9.9 49.9 55 1.3 34.3
16:55 1023 30.21 852 25.16 9.9 49.7 55 1.3 34.4
17:00 1023 30.21 852 25.16 9.8 49.6 56 1.4 34.6
17:05 1023 30.21 852 25.16 9.7 49.4 55 1.2 34.2
17:10 1023 30.21 852 25.16 9.6 49.3 56 1.2 34.1
17:15 1023 30.21 852 25.16 9.6 49.3 56 1.3 34.3
17:20 1023 30.21 852 25.16 9.6 49.3 57 1.5 34.6
17:25 1023 30.21 852 25.16 9.1 48.5 60 1.7 35.1
17:30 1023 30.21 852 25.16 8.8 47.8 59 1.3 34.3
17:35 1023 30.21 852 25.16 8.8 47.8 59 1.2 34.1
17:40 1023 30.21 852 25.16 8.9 48 59 1.3 34.4
17:45 1023 30.21 852 25.16 8.9 48 60 1.6 34.8
17:50 1023 30.21 852 25.16 8.9 48 58 1.1 34.1
17:55 1023 30.21 852 25.16 8.9 48 59 1.3 34.3
18:00 1023 30.21 852 25.16 8.9 48.1 59 1.3 34.3
18:05 1023 30.21 852 25.16 9 48.1 58 1.1 33.9
18:10 1023 30.21 852 25.16 8.7 47.7 61 1.5 34.8
18:15 1023 30.21 852 25.16 8.3 47 63 1.6 34.9
18:20 1023 30.21 852 25.16 8.2 46.7 66 2.3 36.1
18:25 1023 30.21 852 25.16 7.9 46.3 67 2.1 35.8
18:30 1023 30.21 852 25.16 7.6 45.8 67 2 35.6
18:35 1023 30.21 852 25.16 7.5 45.5 67 1.8 35.3
18:40 1023 30.21 852 25.16 7.5 45.4 67 1.7 35
18:45 1023 30.21 852 25.16 7.5 45.4 67 1.7 35.1
18:50 1023 30.21 852 25.16 7.4 45.4 68 1.9 35.4
18:55 1023 30.21 852 25.16 7.2 45 68 1.8 35.2
19:00 1023 30.21 852 25.16 7.1 44.8 69 1.8 35.2
19:05 1023 30.21 853 25.19 7.1 44.7 70 1.9 35.4
19:10 1023 30.21 853 25.19 6.9 44.4 70 1.8 35.2
19:15 1023 30.21 853 25.19 6.9 44.3 70 1.7 35
19:20 1023 30.21 853 25.19 6.9 44.4 71 1.9 35.5
19:25 1023 30.21 853 25.19 6.8 44.3 71 1.9 35.4
19:30 1023 30.21 853 25.19 6.8 44.2 71 1.9 35.5
19:35 1023 30.21 853 25.19 6.8 44.2 71 1.9 35.5
19:40 1023 30.21 853 25.19 6.8 44.2 71 1.9 35.4
19:45 1024 30.24 853 25.19 6.7 44 72 2.1 35.7
19:50 1024 30.24 853 25.19 6.6 43.9 74 2.2 36
19:55 1023 30.21 853 25.19 6.6 43.8 73 2.1 35.8
20:00 1023 30.21 853 25.19 6.6 43.8 74 2.2 36
20:05 1024 30.24 853 25.19 6.5 43.6 73 2 35.7
20:10 1024 30.24 853 25.19 6.4 43.6 73 2 35.6
20:15 1024 30.24 853 25.19 6.4 43.5 73 2 35.6
20:20 1024 30.24 853 25.19 6.3 43.3 75 2.2 35.9
20:25 1024 30.24 853 25.19 6.2 43.1 74 1.9 35.5
20:30 1024 30.24 853 25.19 6.2 43.2 74 1.9 35.5
20:35 1024 30.24 853 25.19 6.2 43.1 75 2.1 35.7
20:40 1024 30.24 853 25.19 6 42.8 75 2 35.5
20:45 1024 30.24 853 25.19 6 42.8 75 1.8 35.3
20:50 1024 30.24 853 25.19 6.2 43.1 74 1.9 35.5
20:55 1024 30.24 853 25.19 5.9 42.6 75 1.9 35.4
21:00 1024 30.24 853 25.19 5.7 42.3 76 1.7 35.1
21:05 1024 30.24 853 25.19 5.7 42.2 77 1.9 35.4
21:10 1024 30.24 853 25.19 5.6 42 76 1.6 34.9
21:15 1024 30.24 853 25.19 5.8 42.5 74 1.7 35
21:20 1024 30.24 853 25.19 5.9 42.6 73 1.5 34.7
21:25 1024 30.24 853 25.19 5.9 42.7 73 1.5 34.8
21:30 1024 30.24 853 25.19 5.8 42.4 75 1.7 35.1
21:35 1024 30.24 853 25.19 5.5 41.8 76 1.6 34.8
21:40 1024 30.24 853 25.19 5.4 41.7 74 1.2 34.1
21:45 1024 30.24 853 25.19 5.5 42 74 1.2 34.2
21:50 1024 30.24 853 25.19 5.7 42.2 72 1 33.8
21:55 1024 30.24 853 25.19 5.6 42.1 74 1.4 34.6
22:00 1024 30.24 853 25.19 5.4 41.7 75 1.3 34.4
22:05 1024 30.24 853 25.19 5.4 41.7 74 1.1 33.9
22:10 1024 30.24 854 25.22 5.5 41.9 74 1.2 34.2
22:15 1024 30.24 854 25.22 5.3 41.6 74 1 33.8
22:20 1024 30.24 854 25.22 5.3 41.5 74 1 33.8
22:25 1024 30.24 854 25.22 5.3 41.6 74 1.1 33.9
22:30 1024 30.24 854 25.22 5.4 41.8 73 1 33.8
22:35 1024 30.24 854 25.22 5.5 41.9 72 0.9 33.7
22:40 1025 30.27 854 25.22 5.7 42.2 71 0.9 33.6
22:45 1025 30.27 854 25.22 5.6 42.2 72 1.1 34
22:50 1025 30.27 854 25.22 5.5 42 73 1.2 34.1
22:55 1025 30.27 854 25.22 5.2 41.4 76 1.4 34.5
23:00 1025 30.27 854 25.22 4.9 40.8 76 1 33.8
23:05 1025 30.27 854 25.22 4.9 40.8 76 1 33.8
23:10 1025 30.27 854 25.22 4.9 40.8 76 1 33.9
23:15 1025 30.27 854 25.22 5.1 41.1 75 1 33.9
23:20 1025 30.27 854 25.22 5.1 41.1 76 1.2 34.2
23:25 1025 30.27 854 25.22 4.8 40.7 78 1.3 34.3
23:30 1025 30.27 854 25.22 4.7 40.4 78 1.2 34.1
23:35 1025 30.27 854 25.22 4.6 40.3 78 1.2 34.1
23:40 1025 30.27 854 25.22 4.6 40.3 77 0.9 33.6
23:45 1025 30.27 854 25.22 4.7 40.5 76 0.9 33.7
23:50 1025 30.27 854 25.22 4.8 40.6 75 0.8 33.4
23:55 1025 30.27 854 25.22 4.8 40.7 76 0.9 33.6
24:00 1025 30.27 854 25.22 4.8 40.6 76 0.9 33.6